Soaring Guidance
Issued by NWS Reno, NV

Home | Current Version | Previous Version | Text Only | Print | Product List | Glossary On
Versions: 1 2 3 4 5 6 7 8 9 10 11 12
000
UXUS97 KREV 241438
SRGREV

SOARING FORECAST
NATIONAL WEATHER SERVICE - RENO NV
700 AM PST FRI NOV 24 2017

THIS SOARING FORECAST IS FOR THE EASTERN SIERRA AND WESTERN NEVADA
WITH SPECIFIC INDICES FOR THE GREATER RENO AREA.

THIS FORECAST IS PREPARED DAILY BY 700 AM AND IS NOT UPDATED.

FOR CURRENT FLIGHT CONDITIONS...FORECASTS...AND ADVISORIES...ACCESS
YOUR LOCAL BRIEFING OUTLET OR FLIGHT SERVICE STATION.

*******************************************************************
FORECASTED LOCAL INDICES FOR RENO:        TODAY     YESTERDAY
FORECASTED MAX TEMP AT RENO (DEG F).....     65          73
FORECASTED TRIGGER TEMPERATURE (DEG F)..     63          67
   EXCEEDED YESTERDAY BY 1355 PM PST
FORECASTED MAXIMUM ALTITUDE (FT MSL)....   8900        8400
FORECASTED SOARING INDEX (FPM)..........    267         282
FORECASTED K-INDEX.........VALID 18Z....      0           9
FORECASTED K-INDEX.........VALID 00Z....      0          23
FORECASTED LIFTED INDEX....VALID 18Z....      9           6
FORECASTED LIFTED INDEX....VALID 00Z....      8           6

AFTERNOON WINDS ALOFT FORECAST
MSL (FT) WIND/TEMP
9000  2725/+06
10000 2728/+04
12000 2733/+01
14000 2737/-03
16000 2741/-07
18000 2854/-12
24000 2678/-23
30000 2798/-36
34000 2799/-47
39000 2897/-60

SLIDE MOUNTAIN DATA:
     DATE       TIME     TEMP  DEWPT   RH         WIND (MPH)
                        (F)   (F)           | DIR  SPEED GUST
2017-11-24    05:50      34    25     60    | 262   53   66
2017-11-24    05:30      34    25     60    | 261   54   64
2017-11-24    05:20      33    26     66    | 257   53   70
2017-11-24    05:00      33    25     62    | 257   53   66

SIERRA CREST 8700 FT DATA:
   DATE     TIME  TEMP  RH         WIND
                            DIR   SPEED   GUST
2017-11-24 0600   34   87   220     31     49
2017-11-24 0545   35   81   256     36     49
2017-11-24 0530   34   84   248     38     50
2017-11-24 0515   34   92   247     39     47

RENO TAF FORECAST:
KRNO 241126Z 2412/2512 32006KT P6SM BKN200
     FM241700 29006KT P6SM SCT110 BKN200
     FM250200 VRB04KT P6SM SCT110 BKN200

CARSON CITY TAF FORECAST:
KCXP 241126Z 2412/2512 30006KT P6SM BKN200
     FM241900 26006KT P6SM SCT100 BKN200
     FM250200 VRB04KT P6SM SCT100 BKN200

OUTLOOK FOR THE RENO-CARSON CITY-MINDEN AREA:
.SATURDAY...MOSTLY CLOUDY IN THE MORNING THEN BECOMING PARTLY
CLOUDY. HIGHS 63 TO 68. SOUTH WINDS 10 TO 15 MPH. GUSTS UP TO
35 MPH IN THE AFTERNOON.

SUNRISE AND SUNSET
NOVEMBER 24 2017......SUNRISE   653 AM PST   SUNSET   438 PM PST
NOVEMBER 25 2017......SUNRISE   655 AM PST   SUNSET   438 PM PST


USA.gov is the U.S. government's official web portal to all federal, state and local government web resources and services.